Time;durP1;ratioP1;P1;durP2;ratioP2;P2;SDS_P1;SDS_P2;PMS_P1;PMS_P2;Temp;Humidity;BMP_temperature;BMP_pressure;BME280_temperature;BME280_humidity;BME280_pressure;Samples;Min_cycle;Max_cycle;Signal;HPM_P1;HPM_P2
2022/09/23 00:01:45;;;;;;;1.30;1.13;;;13.80;35.60;;;;;;4960887;28;20183;-69
2022/09/23 00:04:10;;;;;;;1.30;1.10;;;13.90;35.60;;;;;;4968582;28;20183;-70
2022/09/23 00:06:38;;;;;;;1.30;1.20;;;13.90;36.00;;;;;;4965679;28;20477;-70
2022/09/23 00:09:03;;;;;;;1.30;1.17;;;13.90;35.30;;;;;;4964587;28;20207;-70
2022/09/23 00:11:29;;;;;;;1.30;1.20;;;14.20;35.70;;;;;;4971277;28;20433;-70
2022/09/23 00:13:57;;;;;;;1.30;1.10;;;13.90;36.00;;;;;;4963966;28;20194;-70
2022/09/23 00:16:27;;;;;;;1.30;1.10;;;14.20;37.10;;;;;;4963379;28;20670;-70
2022/09/23 00:18:53;;;;;;;1.30;1.10;;;13.80;35.90;;;;;;4965814;28;20430;-70
2022/09/23 00:21:20;;;;;;;1.30;1.10;;;13.70;36.60;;;;;;4968448;28;20516;-70
2022/09/23 00:23:47;;;;;;;1.30;1.10;;;14.00;36.30;;;;;;4966567;28;20483;-70
2022/09/23 00:26:15;;;;;;;1.30;1.10;;;13.90;36.00;;;;;;4968846;28;20445;-70
2022/09/23 00:28:41;;;;;;;1.30;1.13;;;13.60;36.10;;;;;;4971956;28;20198;-70
2022/09/23 00:31:09;;;;;;;1.30;1.10;;;13.40;35.50;;;;;;4963652;28;20438;-70
2022/09/23 00:33:35;;;;;;;1.30;1.20;;;13.50;36.50;;;;;;4960949;28;20485;-71
2022/09/23 00:36:03;;;;;;;1.30;1.20;;;13.20;36.70;;;;;;4966367;28;20832;-70
2022/09/23 00:38:29;;;;;;;1.30;1.10;;;13.00;36.70;;;;;;4963332;28;20703;-70
2022/09/23 00:40:56;;;;;;;2.70;1.40;;;12.90;37.00;;;;;;4971630;28;20225;-71
2022/09/23 00:43:51;;;;;;;1.30;1.20;;;12.80;37.50;;;;;;4971150;28;20556;-70
2022/09/23 00:46:26;;;;;;;1.30;1.00;;;12.70;37.70;;;;;;4964950;28;20648;-71
2022/09/23 00:48:58;;;;;;;1.30;1.20;;;12.50;37.80;;;;;;4975906;28;20262;-71
2022/09/23 00:51:31;;;;;;;1.30;1.10;;;12.60;38.20;;;;;;4975277;28;20452;-71
2022/09/23 00:53:57;;;;;;;1.30;1.20;;;12.60;38.80;;;;;;4967428;28;20181;-71
2022/09/23 00:56:23;;;;;;;1.40;1.20;;;12.80;38.60;;;;;;4974395;28;20457;-71
2022/09/23 00:58:50;;;;;;;1.40;1.20;;;12.60;39.40;;;;;;4967567;28;20188;-71
2022/09/23 01:01:18;;;;;;;1.30;1.10;;;12.60;38.10;;;;;;4967199;28;20547;-71
2022/09/23 01:03:44;;;;;;;1.40;1.20;;;12.60;38.50;;;;;;4963489;28;20719;-71
2022/09/23 01:06:11;;;;;;;1.40;1.10;;;12.40;38.70;;;;;;4971166;28;20757;-71
2022/09/23 01:08:38;;;;;;;1.40;1.10;;;12.30;38.80;;;;;;4967098;28;20221;-70
2022/09/23 01:11:41;;;;;;;1.30;1.00;;;12.30;38.70;;;;;;4974795;28;20193;-71
2022/09/23 01:14:30;;;;;;;1.70;1.45;;;12.30;38.80;;;;;;4966878;28;20607;-71
2022/09/23 01:17:06;;;;;;;1.40;1.10;;;12.20;38.90;;;;;;4970738;28;20203;-71
2022/09/23 01:20:01;;;;;;;1.40;1.00;;;12.20;38.70;;;;;;4973543;28;20196;-70
2022/09/23 01:22:30;;;;;;;1.40;1.10;;;12.10;39.70;;;;;;4964742;28;20651;-71
2022/09/23 01:25:33;;;;;;;1.40;1.10;;;12.10;39.80;;;;;;4974822;28;20248;-71
2022/09/23 01:28:09;;;;;;;1.30;1.10;;;12.10;39.80;;;;;;4970646;28;20749;-70
2022/09/23 01:30:53;;;;;;;2.00;1.30;;;12.00;39.80;;;;;;4971473;28;20260;-70
2022/09/23 01:33:56;;;;;;;1.40;1.10;;;11.90;40.50;;;;;;4969658;28;20180;-71
2022/09/23 01:36:27;;;;;;;1.33;1.00;;;12.00;40.00;;;;;;4974302;28;20178;-70
2022/09/23 01:38:59;;;;;;;1.40;1.10;;;11.90;40.80;;;;;;4974085;28;20209;-71
2022/09/23 01:42:02;;;;;;;1.40;1.17;;;12.00;40.20;;;;;;4967133;28;20728;-71
2022/09/23 01:44:50;;;;;;;1.40;1.10;;;12.00;41.00;;;;;;4971227;28;20642;-70
2022/09/23 01:47:21;;;;;;;1.40;1.10;;;11.80;39.90;;;;;;4969560;28;20200;-71
2022/09/23 01:50:00;;;;;;;1.30;1.10;;;11.60;41.80;;;;;;4974391;28;20297;-70
2022/09/23 01:52:41;;;;;;;1.40;1.20;;;11.70;41.00;;;;;;4965974;28;20218;-70
2022/09/23 01:55:22;;;;;;;1.35;1.10;;;11.70;41.20;;;;;;4968072;28;20272;-70
2022/09/23 01:58:00;;;;;;;1.38;1.10;;;11.60;42.20;;;;;;4965514;28;20247;-70
2022/09/23 02:00:30;;;;;;;1.30;1.10;;;11.70;41.70;;;;;;4967605;28;20183;-70
2022/09/23 02:03:11;;;;;;;1.40;1.10;;;11.80;41.50;;;;;;4973283;28;20225;-70
2022/09/23 02:05:43;;;;;;;1.40;1.00;;;11.90;41.20;;;;;;4974410;28;20559;-69
2022/09/23 02:08:12;;;;;;;1.40;1.10;;;12.00;41.10;;;;;;4961764;28;20217;-70
2022/09/23 02:10:44;;;;;;;1.40;1.10;;;11.60;41.20;;;;;;4971216;28;20708;-69
2022/09/23 02:13:28;;;;;;;1.30;1.10;;;11.00;43.70;;;;;;4962633;28;20179;-68
2022/09/23 02:15:59;;;;;;;1.40;1.17;;;11.30;43.00;;;;;;4973574;28;20428;-68
2022/09/23 02:18:31;;;;;;;1.40;1.13;;;11.30;42.10;;;;;;4974229;28;20677;-69
2022/09/23 02:21:03;;;;;;;1.40;1.10;;;11.80;42.30;;;;;;4973712;28;20224;-68
2022/09/23 02:23:41;;;;;;;1.40;1.10;;;11.70;41.80;;;;;;4973709;28;20180;-68
2022/09/23 02:26:38;;;;;;;1.38;1.10;;;11.50;42.00;;;;;;4974070;28;20177;-69
2022/09/23 02:29:06;;;;;;;1.40;1.40;;;11.60;41.00;;;;;;4963313;28;20596;-69
2022/09/23 02:31:37;;;;;;;1.40;1.10;;;11.70;40.80;;;;;;4954780;28;20204;-69
2022/09/23 02:34:45;;;;;;;1.40;1.10;;;11.50;41.40;;;;;;4965119;28;20280;-68
2022/09/23 02:37:30;;;;;;;1.40;1.10;;;11.20;42.30;;;;;;4944762;28;20203;-69
2022/09/23 02:40:08;;;;;;;1.40;1.10;;;11.30;42.10;;;;;;4952195;29;20791;-69
2022/09/23 02:42:49;;;;;;;1.40;1.10;;;11.50;41.10;;;;;;4951785;29;20195;-69
2022/09/23 02:45:14;;;;;;;1.40;1.10;;;11.50;41.00;;;;;;4936396;29;20187;-69
2022/09/23 02:47:45;;;;;;;1.40;1.20;;;11.50;40.60;;;;;;4951877;28;20799;-69
2022/09/23 02:50:11;;;;;;;1.40;1.10;;;11.50;41.00;;;;;;4952352;28;20287;-69
2022/09/23 02:52:37;;;;;;;1.40;1.10;;;11.90;41.60;;;;;;4951677;28;20276;-68
2022/09/23 02:55:05;;;;;;;1.30;1.10;;;11.90;41.70;;;;;;4951879;28;20717;-68
2022/09/23 02:57:31;;;;;;;1.40;1.15;;;11.50;40.80;;;;;;4952611;28;20215;-68
2022/09/23 02:59:57;;;;;;;1.40;1.20;;;11.50;40.50;;;;;;4951553;28;20607;-68
2022/09/23 03:02:50;;;;;;;1.30;1.00;;;11.50;40.80;;;;;;4951414;28;20534;-68
2022/09/23 03:05:29;;;;;;;1.40;1.10;;;11.30;41.00;;;;;;4951875;29;20595;-69
2022/09/23 03:08:13;;;;;;;1.40;1.10;;;11.30;40.00;;;;;;4962244;28;20235;-69
2022/09/23 03:10:49;;;;;;;1.33;1.10;;;11.40;39.50;;;;;;4966112;28;20740;-70
2022/09/23 03:13:49;;;;;;;1.40;1.20;;;11.20;41.10;;;;;;4972538;28;20242;-69
2022/09/23 03:16:33;;;;;;;1.40;1.10;;;11.10;40.50;;;;;;4973108;28;20178;-69
2022/09/23 03:18:59;;;;;;;1.40;1.10;;;11.00;40.40;;;;;;4972506;28;20180;-69
2022/09/23 03:21:31;;;;;;;1.90;1.47;;;10.90;41.10;;;;;;4965554;28;20230;-70
2022/09/23 03:24:01;;;;;;;1.30;1.10;;;10.90;41.20;;;;;;4971384;28;20179;-70
2022/09/23 03:26:30;;;;;;;1.30;1.10;;;11.00;41.10;;;;;;4973259;28;20239;-69
2022/09/23 03:28:58;;;;;;;1.40;1.10;;;10.90;40.60;;;;;;4972552;28;20654;-68
2022/09/23 03:31:24;;;;;;;1.33;1.10;;;11.00;41.10;;;;;;4964784;28;20597;-69
2022/09/23 03:33:54;;;;;;;1.30;1.10;;;11.00;41.30;;;;;;4972506;28;20188;-69
2022/09/23 03:36:50;;;;;;;1.40;1.17;;;10.80;41.70;;;;;;4972399;28;20173;-68
2022/09/23 03:39:47;;;;;;;1.40;1.08;;;10.90;41.40;;;;;;4964735;28;20190;-68
2022/09/23 03:42:20;;;;;;;1.40;1.20;;;10.80;41.50;;;;;;4964375;28;20267;-69
2022/09/23 03:44:47;;;;;;;1.38;1.10;;;10.80;41.60;;;;;;4964625;28;20222;-69
2022/09/23 03:47:15;;;;;;;1.40;1.10;;;10.80;41.50;;;;;;4972547;28;20601;-69
2022/09/23 03:49:44;;;;;;;1.40;1.10;;;11.60;43.60;;;;;;4967814;28;20195;-69
2022/09/23 03:52:10;;;;;;;1.40;1.10;;;10.80;41.30;;;;;;4968716;28;20187;-70
2022/09/23 03:54:36;;;;;;;1.40;1.20;;;10.90;41.50;;;;;;4960901;28;20190;-69
2022/09/23 03:57:02;;;;;;;1.30;1.00;;;10.80;41.80;;;;;;4968399;28;20477;-69
2022/09/23 03:59:31;;;;;;;1.30;1.10;;;10.70;41.60;;;;;;4969717;28;20187;-69
2022/09/23 04:01:58;;;;;;;1.40;1.10;;;10.80;41.10;;;;;;4967240;28;20220;-70
2022/09/23 04:04:26;;;;;;;1.38;1.10;;;10.90;42.40;;;;;;4963751;28;20198;-69
2022/09/23 04:06:53;;;;;;;1.38;1.10;;;10.80;42.30;;;;;;4972244;28;20217;-68
2022/09/23 04:09:19;;;;;;;1.30;1.10;;;11.10;40.80;;;;;;4971027;28;20207;-69
2022/09/23 04:11:46;;;;;;;1.30;1.00;;;10.90;41.00;;;;;;4965277;28;20195;-69
2022/09/23 04:14:12;;;;;;;1.35;1.00;;;10.90;40.70;;;;;;4964009;28;20189;-69
2022/09/23 04:16:38;;;;;;;1.33;1.10;;;10.90;40.20;;;;;;4971847;28;20199;-70
2022/09/23 04:19:03;;;;;;;1.40;1.00;;;10.80;40.80;;;;;;4972028;28;20571;-69
2022/09/23 04:21:30;;;;;;;1.33;1.07;;;10.70;40.90;;;;;;4969261;28;20183;-69
2022/09/23 04:23:55;;;;;;;1.40;1.10;;;10.70;41.50;;;;;;4965084;28;20622;-69
2022/09/23 04:26:21;;;;;;;1.40;1.10;;;10.70;41.20;;;;;;4971184;28;20294;-69
2022/09/23 04:28:46;;;;;;;1.40;1.17;;;10.50;42.10;;;;;;4965154;28;20238;-70
2022/09/23 04:31:12;;;;;;;1.30;1.00;;;10.50;42.10;;;;;;4964355;28;20181;-69
2022/09/23 04:33:38;;;;;;;1.40;1.10;;;10.60;41.30;;;;;;4970284;28;20178;-69
2022/09/23 04:36:03;;;;;;;1.40;1.10;;;10.60;41.40;;;;;;4972095;28;20217;-69
2022/09/23 04:38:29;;;;;;;1.50;1.20;;;10.60;41.30;;;;;;4964787;28;20210;-69
2022/09/23 04:40:55;;;;;;;1.40;1.10;;;10.60;40.80;;;;;;4971648;28;20701;-69
2022/09/23 04:43:22;;;;;;;1.40;1.13;;;10.60;41.10;;;;;;4963971;28;20189;-69
2022/09/23 04:45:58;;;;;;;1.40;1.10;;;10.50;41.00;;;;;;4970588;28;20210;-69
2022/09/23 04:48:23;;;;;;;1.40;1.10;;;10.50;40.70;;;;;;4971000;28;20285;-69
2022/09/23 04:50:49;;;;;;;1.40;1.10;;;10.50;41.80;;;;;;4964006;28;20297;-69
2022/09/23 04:53:15;;;;;;;1.40;1.10;;;10.50;40.90;;;;;;4963922;28;20674;-69
2022/09/23 04:55:41;;;;;;;1.40;1.10;;;10.60;41.60;;;;;;4971363;28;20214;-69
2022/09/23 04:58:08;;;;;;;1.30;1.00;;;10.30;41.70;;;;;;4964012;28;20202;-69
2022/09/23 05:00:35;;;;;;;1.30;1.10;;;10.30;41.20;;;;;;4972080;28;20213;-69
2022/09/23 05:03:01;;;;;;;1.40;1.10;;;10.40;41.20;;;;;;4967167;28;20233;-69
2022/09/23 05:05:27;;;;;;;1.37;1.10;;;10.40;42.30;;;;;;4963522;28;20192;-69
2022/09/23 05:07:54;;;;;;;1.40;1.10;;;10.40;42.30;;;;;;4971547;28;20461;-69
2022/09/23 05:10:21;;;;;;;1.38;1.00;;;10.40;41.30;;;;;;4971675;28;20261;-69
2022/09/23 05:12:46;;;;;;;1.40;1.10;;;10.30;41.60;;;;;;4968596;28;20187;-69
2022/09/23 05:15:13;;;;;;;1.40;1.10;;;10.30;41.70;;;;;;4964671;28;20267;-69
2022/09/23 05:17:39;;;;;;;1.40;1.10;;;10.30;41.60;;;;;;4961998;28;20699;-68
2022/09/23 05:20:05;;;;;;;1.40;1.10;;;10.30;42.10;;;;;;4971702;28;20637;-69
2022/09/23 05:22:31;;;;;;;1.40;1.10;;;10.30;41.30;;;;;;4969944;28;20183;-69
2022/09/23 05:25:00;;;;;;;1.37;1.10;;;10.40;41.70;;;;;;4971667;28;20274;-69
2022/09/23 05:27:26;;;;;;;1.40;1.10;;;10.40;42.30;;;;;;4963844;28;20198;-69
2022/09/23 05:29:51;;;;;;;1.40;1.10;;;10.40;42.30;;;;;;4963307;28;20215;-69
2022/09/23 05:32:17;;;;;;;1.37;1.10;;;10.40;41.70;;;;;;4971249;28;20171;-70
2022/09/23 05:34:43;;;;;;;1.30;1.10;;;10.40;42.20;;;;;;4964900;28;20426;-69
2022/09/23 05:37:09;;;;;;;1.30;1.10;;;10.40;41.90;;;;;;4968157;28;20435;-69
2022/09/23 05:39:35;;;;;;;1.30;1.00;;;10.50;41.60;;;;;;4966910;28;20258;-68
2022/09/23 05:42:00;;;;;;;1.35;1.10;;;10.60;42.00;;;;;;4971081;28;20581;-69
2022/09/23 05:44:26;;;;;;;1.30;1.10;;;10.60;41.50;;;;;;4970343;28;20265;-69
2022/09/23 05:46:51;;;;;;;1.37;1.10;;;10.60;42.20;;;;;;4966714;28;20257;-69
2022/09/23 05:49:17;;;;;;;1.30;1.10;;;10.60;41.90;;;;;;4969500;28;20283;-69
2022/09/23 05:51:43;;;;;;;1.30;1.00;;;10.60;42.20;;;;;;4970509;28;20183;-69
2022/09/23 05:54:08;;;;;;;1.37;1.10;;;10.60;41.60;;;;;;4973317;28;20276;-69
2022/09/23 05:56:36;;;;;;;1.40;1.10;;;10.70;41.70;;;;;;4967102;28;20202;-69
2022/09/23 05:59:02;;;;;;;1.30;1.00;;;10.80;41.30;;;;;;4971070;28;20183;-69
2022/09/23 06:01:32;;;;;;;1.30;1.10;;;10.90;41.40;;;;;;4969960;28;20490;-69
2022/09/23 06:03:58;;;;;;;1.30;1.10;;;11.10;41.10;;;;;;4966293;28;20178;-69
2022/09/23 06:06:28;;;;;;;1.40;1.20;;;11.10;41.30;;;;;;4974216;28;20278;-69
2022/09/23 06:08:53;;;;;;;1.30;1.10;;;10.90;41.40;;;;;;4966399;28;20215;-70
2022/09/23 06:11:20;;;;;;;1.30;1.10;;;11.00;41.30;;;;;;4966241;28;20206;-69
2022/09/23 06:13:46;;;;;;;1.40;1.20;;;11.00;41.20;;;;;;4973883;28;20608;-69
2022/09/23 06:16:14;;;;;;;1.30;1.10;;;11.00;40.70;;;;;;4974400;28;20275;-70
2022/09/23 06:18:41;;;;;;;1.30;1.10;;;11.10;41.10;;;;;;4966478;28;20962;-69
2022/09/23 06:21:13;;;;;;;1.30;1.10;;;11.10;40.90;;;;;;4973938;28;20188;-69
2022/09/23 06:23:38;;;;;;;1.30;1.08;;;11.20;41.00;;;;;;4973460;28;20686;-70
2022/09/23 06:26:07;;;;;;;1.40;1.20;;;11.30;42.20;;;;;;4972699;28;20288;-69
2022/09/23 06:28:37;;;;;;;1.30;1.08;;;11.40;40.10;;;;;;4974399;28;20525;-69
2022/09/23 06:31:07;;;;;;;1.30;1.10;;;11.50;40.60;;;;;;4972768;28;20226;-70
2022/09/23 06:33:33;;;;;;;1.38;1.10;;;11.50;40.30;;;;;;4964857;28;20188;-69
2022/09/23 06:36:02;;;;;;;1.30;1.08;;;11.50;40.30;;;;;;4965711;28;20551;-69
2022/09/23 06:38:28;;;;;;;1.30;1.10;;;11.40;40.20;;;;;;4973210;28;20220;-69
2022/09/23 06:40:56;;;;;;;1.40;1.20;;;11.70;40.50;;;;;;4965250;28;20191;-69
2022/09/23 06:43:23;;;;;;;1.30;1.10;;;11.30;40.30;;;;;;4969427;28;20203;-69
2022/09/23 06:45:59;;;;;;;1.30;1.10;;;11.40;40.40;;;;;;4962223;28;20229;-70
2022/09/23 06:48:26;;;;;;;1.30;1.05;;;11.20;41.10;;;;;;4962623;28;20208;-70
2022/09/23 06:50:52;;;;;;;1.40;1.30;;;11.20;41.20;;;;;;4968255;28;20361;-69
2022/09/23 06:53:22;;;;;;;1.30;1.10;;;11.20;41.70;;;;;;4973143;28;20298;-69
2022/09/23 06:55:48;;;;;;;1.40;1.10;;;11.40;41.50;;;;;;4964442;28;20178;-69
2022/09/23 06:58:14;;;;;;;1.30;1.10;;;11.60;40.60;;;;;;4965041;28;20203;-69
2022/09/23 07:00:40;;;;;;;1.30;1.10;;;11.80;40.20;;;;;;4967571;28;20966;-69
2022/09/23 07:03:07;;;;;;;1.30;1.10;;;12.00;39.10;;;;;;4969482;28;20193;-69
2022/09/23 07:05:33;;;;;;;1.30;1.10;;;12.20;39.10;;;;;;4967201;28;20429;-70
2022/09/23 07:07:59;;;;;;;1.30;1.10;;;12.30;39.00;;;;;;4972677;28;20684;-70
2022/09/23 07:10:28;;;;;;;1.30;1.10;;;12.30;39.10;;;;;;4980697;28;20202;-70
2022/09/23 07:12:54;;;;;;;1.30;1.10;;;12.50;38.60;;;;;;4964789;28;20182;-70
2022/09/23 07:15:19;;;;;;;1.30;1.10;;;12.30;38.10;;;;;;4972971;28;20205;-70
2022/09/23 07:17:45;;;;;;;1.30;1.10;;;12.40;38.40;;;;;;4972862;28;20312;-70
2022/09/23 07:20:10;;;;;;;1.40;1.20;;;12.50;37.40;;;;;;4964461;28;20198;-70
2022/09/23 07:22:37;;;;;;;1.30;1.00;;;12.30;38.90;;;;;;4972029;28;20192;-70
2022/09/23 07:25:03;;;;;;;1.30;1.00;;;12.40;39.70;;;;;;4963752;28;20187;-69
2022/09/23 07:27:28;;;;;;;1.30;1.03;;;12.50;38.20;;;;;;4971628;28;20214;-69
2022/09/23 07:29:54;;;;;;;1.40;1.20;;;12.20;39.50;;;;;;4973382;28;20740;-70
2022/09/23 07:32:21;;;;;;;1.40;1.17;;;12.60;38.90;;;;;;4964191;28;20197;-70
2022/09/23 07:34:47;;;;;;;1.30;1.00;;;12.50;38.80;;;;;;4971507;28;20257;-70
2022/09/23 07:37:17;;;;;;;1.37;1.20;;;12.10;39.80;;;;;;4963975;28;21033;-70
2022/09/23 07:39:43;;;;;;;1.30;1.10;;;12.50;40.20;;;;;;4972821;28;21005;-70
2022/09/23 07:42:12;;;;;;;1.40;1.20;;;13.20;38.40;;;;;;4964420;28;20517;-70
2022/09/23 07:44:38;;;;;;;1.30;1.10;;;12.90;37.90;;;;;;4969125;28;20426;-70
2022/09/23 07:47:04;;;;;;;1.40;1.17;;;13.00;37.80;;;;;;4968187;28;20450;-70
2022/09/23 07:49:29;;;;;;;1.30;1.10;;;13.30;37.30;;;;;;4964651;28;20461;-70
2022/09/23 07:51:55;;;;;;;1.40;1.30;;;13.20;38.90;;;;;;4963865;28;21005;-70
2022/09/23 07:54:21;;;;;;;1.30;1.10;;;12.90;38.20;;;;;;4964554;28;20183;-70
2022/09/23 07:56:47;;;;;;;1.40;1.20;;;13.20;39.40;;;;;;4971850;28;20200;-70
2022/09/23 07:59:15;;;;;;;1.30;1.03;;;12.60;40.80;;;;;;4972279;28;20182;-70
2022/09/23 08:01:45;;;;;;;1.30;1.10;;;13.40;38.90;;;;;;4972032;28;20513;-69
2022/09/23 08:04:12;;;;;;;1.30;1.10;;;13.80;38.70;;;;;;4970947;28;20426;-70
2022/09/23 08:06:45;;;;;;;1.30;1.00;;;13.20;39.60;;;;;;4963701;28;20518;-70
2022/09/23 08:09:11;;;;;;;1.30;1.10;;;13.30;39.40;;;;;;4972261;28;20418;-69
2022/09/23 08:11:40;;;;;;;1.30;1.10;;;13.40;39.10;;;;;;4970826;28;20485;-69
2022/09/23 08:14:07;;;;;;;1.30;1.10;;;13.50;40.10;;;;;;4957501;28;20421;-70
2022/09/23 08:16:34;;;;;;;1.30;1.17;;;13.20;39.70;;;;;;4972441;28;20458;-69
2022/09/23 08:18:59;;;;;;;1.30;1.10;;;13.50;39.30;;;;;;4963648;28;20941;-69
2022/09/23 08:21:25;;;;;;;1.40;1.20;;;14.00;37.70;;;;;;4964258;28;20508;-69
2022/09/23 08:23:50;;;;;;;1.40;1.20;;;14.20;37.10;;;;;;4963635;28;20183;-69
2022/09/23 08:26:16;;;;;;;1.40;1.20;;;14.30;36.70;;;;;;4979377;28;20180;-70
2022/09/23 08:28:46;;;;;;;1.30;1.20;;;14.60;36.60;;;;;;4971136;28;20200;-69
2022/09/23 08:31:12;;;;;;;1.30;1.10;;;14.10;36.90;;;;;;4964603;28;20751;-70
2022/09/23 08:33:39;;;;;;;1.30;1.17;;;14.10;36.90;;;;;;4965462;28;20825;-70
2022/09/23 08:36:05;;;;;;;1.30;1.10;;;14.60;37.20;;;;;;4961108;28;20490;-70
2022/09/23 08:38:31;;;;;;;1.30;1.10;;;14.20;36.90;;;;;;4966728;28;20444;-70
2022/09/23 08:41:28;;;;;;;1.30;1.10;;;14.30;37.30;;;;;;4962601;28;20422;-69
2022/09/23 08:44:00;;;;;;;1.30;1.10;;;14.40;37.30;;;;;;4970820;28;20503;-70
2022/09/23 08:46:36;;;;;;;1.30;1.10;;;13.90;38.70;;;;;;4971788;28;20412;-69
2022/09/23 08:49:06;;;;;;;1.30;1.17;;;14.40;38.00;;;;;;4963718;28;20919;-71
2022/09/23 08:51:45;;;;;;;1.30;1.20;;;14.50;37.80;;;;;;4963066;28;20951;-69
2022/09/23 08:54:12;;;;;;;1.30;1.03;;;14.50;37.70;;;;;;4971329;28;20423;-69
2022/09/23 08:56:38;;;;;;;1.30;1.20;;;14.40;39.10;;;;;;4960952;28;20465;-69
2022/09/23 08:59:30;;;;;;;1.30;1.10;;;14.20;39.20;;;;;;4960771;28;20964;-69
2022/09/23 09:02:04;;;;;;;1.30;1.20;;;14.30;38.60;;;;;;4965154;28;20428;-69
2022/09/23 09:04:36;;;;;;;1.30;1.20;;;14.60;38.90;;;;;;4971703;28;20424;-69
2022/09/23 09:07:08;;;;;;;1.40;1.20;;;14.70;38.10;;;;;;4958200;28;20465;-69
2022/09/23 09:09:45;;;;;;;1.30;1.07;;;14.80;37.60;;;;;;4972959;28;20455;-69
2022/09/23 09:12:25;;;;;;;1.30;1.10;;;15.00;37.30;;;;;;4975273;28;20442;-70
2022/09/23 09:15:00;;;;;;;1.30;1.10;;;15.00;37.10;;;;;;4967313;28;20495;-69
2022/09/23 09:17:34;;;;;;;1.30;1.20;;;15.20;37.10;;;;;;4958961;28;20515;-70
2022/09/23 09:20:04;;;;;;;1.30;1.20;;;15.30;37.30;;;;;;4967825;28;20425;-70
2022/09/23 09:23:07;;;;;;;1.30;1.10;;;15.60;36.90;;;;;;4966709;28;20423;-70
2022/09/23 09:25:43;;;;;;;1.30;1.20;;;15.70;36.00;;;;;;4969149;28;20520;-69
2022/09/23 09:28:23;;;;;;;1.30;1.10;;;15.40;37.30;;;;;;4972975;28;20449;-69
2022/09/23 09:30:55;;;;;;;1.40;1.30;;;15.80;35.90;;;;;;4972411;28;20472;-69
2022/09/23 09:33:45;;;;;;;1.30;1.10;;;16.50;35.60;;;;;;4972288;28;20433;-69
2022/09/23 09:36:30;;;;;;;1.30;1.20;;;16.80;33.60;;;;;;4972304;28;20860;-69
2022/09/23 09:38:58;;;;;;;1.30;1.10;;;16.30;34.10;;;;;;4972139;28;20959;-71
2022/09/23 09:41:29;;;;;;;1.30;1.10;;;16.30;34.10;;;;;;4972613;28;20992;-69
2022/09/23 09:43:58;;;;;;;1.30;1.20;;;16.50;34.80;;;;;;4972284;28;20469;-69
2022/09/23 09:46:38;;;;;;;1.30;1.20;;;16.80;33.60;;;;;;4964745;28;20434;-69
2022/09/23 09:49:22;;;;;;;1.30;1.10;;;16.30;35.90;;;;;;4971991;28;20533;-69
2022/09/23 09:52:10;;;;;;;1.30;1.20;;;16.40;34.90;;;;;;4972227;28;20422;-69
2022/09/23 09:54:35;;;;;;;1.30;1.10;;;16.90;34.10;;;;;;4965411;28;20441;-69
2022/09/23 09:57:04;;;;;;;1.30;1.20;;;16.90;34.00;;;;;;4972331;28;20450;-69
2022/09/23 09:59:31;;;;;;;1.30;1.20;;;16.50;34.00;;;;;;4955728;28;20186;-71
2022/09/23 10:02:24;;;;;;;1.30;1.20;;;16.60;34.70;;;;;;4973374;28;20437;-70
2022/09/23 10:04:59;;;;;;;1.30;1.20;;;16.60;35.00;;;;;;4973201;28;20465;-69
2022/09/23 10:07:31;;;;;;;1.30;1.20;;;16.60;34.80;;;;;;4966007;28;20462;-69
2022/09/23 10:10:04;;;;;;;1.30;1.20;;;17.20;34.60;;;;;;4974512;28;20466;-71
2022/09/23 10:12:45;;;;;;;1.30;1.23;;;17.20;34.20;;;;;;4974194;28;20973;-70
2022/09/23 10:15:32;;;;;;;1.30;1.20;;;17.40;33.20;;;;;;4974171;28;20426;-70
2022/09/23 10:18:01;;;;;;;1.30;1.10;;;17.70;32.70;;;;;;4974341;28;20440;-70
2022/09/23 10:20:45;;;;;;;1.30;1.10;;;17.80;33.30;;;;;;4973768;28;20430;-71
2022/09/23 10:23:20;;;;;;;1.30;1.00;;;17.90;32.60;;;;;;4967452;28;20817;-70
2022/09/23 10:25:56;;;;;;;1.30;1.20;;;17.90;32.60;;;;;;4965754;28;20471;-70
2022/09/23 10:28:46;;;;;;;1.30;1.10;;;18.30;32.70;;;;;;4966031;28;20442;-70
2022/09/23 10:31:31;;;;;;;1.30;1.20;;;18.20;31.80;;;;;;4966490;28;20536;-70
2022/09/23 10:34:03;;;;;;;1.30;1.23;;;18.10;32.00;;;;;;4965541;28;20423;-70
2022/09/23 10:36:31;;;;;;;1.30;1.10;;;18.10;32.10;;;;;;4972407;28;20424;-70
2022/09/23 10:46:37;;;;;;;1.30;1.13;;;18.60;31.40;;;;;;4973693;28;20431;-70
2022/09/23 10:47:55;;;;;;;1.30;1.20;;;19.50;29.90;;;;;;4968010;28;20444;-70
2022/09/23 10:50:46;;;;;;;1.30;1.20;;;20.40;29.50;;;;;;4973437;28;20480;-70
2022/09/23 10:53:13;;;;;;;1.30;1.20;;;20.70;27.50;;;;;;4972988;28;20461;-71
2022/09/23 10:55:58;;;;;;;1.30;1.20;;;21.30;28.00;;;;;;4965958;28;20417;-70
2022/09/23 10:58:49;;;;;;;1.30;1.23;;;21.80;25.80;;;;;;4970057;28;20444;-70
2022/09/23 11:01:27;;;;;;;1.30;1.20;;;21.80;25.30;;;;;;4961046;28;20461;-70
2022/09/23 11:04:02;;;;;;;1.30;1.20;;;22.00;25.50;;;;;;4973521;28;20424;-70
2022/09/23 11:06:46;;;;;;;1.30;1.20;;;21.20;25.70;;;;;;4972097;28;20410;-70
2022/09/23 11:09:49;;;;;;;1.30;1.20;;;21.40;27.00;;;;;;4968379;28;20696;-70
2022/09/23 11:12:32;;;;;;;1.30;1.20;;;21.90;25.50;;;;;;4962265;28;20684;-70
2022/09/23 11:15:24;;;;;;;1.30;1.10;;;22.70;26.50;;;;;;4966278;28;20449;-72
2022/09/23 11:18:21;;;;;;;1.30;1.10;;;22.90;24.80;;;;;;4972402;28;21240;-70
2022/09/23 11:20:55;;;;;;;1.30;1.17;;;22.30;26.20;;;;;;4964499;28;20434;-70
2022/09/23 11:23:29;;;;;;;1.30;1.20;;;22.70;24.50;;;;;;4964654;28;20414;-70
2022/09/23 11:26:26;;;;;;;1.30;1.20;;;21.00;26.70;;;;;;4964724;28;20465;-70
2022/09/23 11:28:57;;;;;;;1.30;1.30;;;21.10;26.80;;;;;;4964691;28;20471;-70
2022/09/23 11:31:53;;;;;;;1.30;1.20;;;20.90;27.30;;;;;;4971945;28;20453;-71
2022/09/23 11:34:48;;;;;;;1.30;1.20;;;21.70;26.60;;;;;;4961792;28;20426;-71
2022/09/23 11:37:18;;;;;;;1.30;1.10;;;22.80;24.80;;;;;;4965340;28;20521;-71
2022/09/23 11:39:44;;;;;;;1.30;1.20;;;23.10;25.30;;;;;;4973021;28;20425;-70
2022/09/23 11:42:26;;;;;;;1.30;1.10;;;23.30;23.60;;;;;;4971931;28;20524;-74
2022/09/23 11:45:13;;;;;;;1.30;1.10;;;24.10;24.50;;;;;;4965252;28;20179;-71
2022/09/23 11:47:50;;;;;;;1.30;1.00;;;25.20;22.10;;;;;;4967145;28;20856;-71
2022/09/23 11:50:28;;;;;;;1.67;1.40;;;24.80;21.70;;;;;;4964455;28;20521;-71
2022/09/23 11:53:17;;;;;;;1.30;1.10;;;25.10;21.70;;;;;;4972096;28;20424;-70
2022/09/23 11:55:52;;;;;;;1.30;1.10;;;24.90;19.30;;;;;;4967335;28;20874;-70
2022/09/23 11:58:24;;;;;;;1.40;1.23;;;23.00;22.10;;;;;;4961605;28;20797;-71
2022/09/23 12:01:28;;;;;;;1.30;1.00;;;23.80;22.40;;;;;;4972476;28;20417;-71
2022/09/23 12:04:39;;;;;;;1.30;1.00;;;25.00;19.90;;;;;;4970707;28;20429;-71
2022/09/23 12:07:07;;;;;;;1.30;1.00;;;24.70;21.70;;;;;;4990814;28;20471;-71
2022/09/23 12:09:48;;;;;;;1.30;1.00;;;25.30;20.40;;;;;;4999542;28;20472;-71
2022/09/23 12:12:16;;;;;;;1.30;1.00;;;25.10;19.90;;;;;;5001651;28;20487;-71
2022/09/23 12:15:01;;;;;;;1.57;1.20;;;24.40;20.70;;;;;;4997269;28;20427;-71
2022/09/23 12:18:02;;;;;;;1.30;1.10;;;24.30;21.90;;;;;;4989652;28;20444;-71
2022/09/23 12:20:34;;;;;;;1.30;1.10;;;24.60;20.70;;;;;;4990883;28;20994;-70
2022/09/23 12:23:02;;;;;;;1.30;1.10;;;24.30;21.70;;;;;;4981757;28;20436;-70
2022/09/23 12:25:45;;;;;;;1.30;1.10;;;24.60;22.00;;;;;;4989424;28;20511;-70
2022/09/23 12:28:17;;;;;;;1.30;1.10;;;24.60;22.50;;;;;;5001662;28;21017;-70
2022/09/23 12:30:44;;;;;;;1.30;1.10;;;24.80;22.60;;;;;;5008410;28;20459;-72
2022/09/23 12:33:21;;;;;;;1.30;1.10;;;24.30;20.30;;;;;;4997264;28;20439;-70
2022/09/23 12:35:47;;;;;;;1.30;1.10;;;23.10;23.20;;;;;;5003326;28;20495;-71
2022/09/23 12:38:24;;;;;;;1.30;1.10;;;23.20;22.70;;;;;;5005584;28;20448;-70
2022/09/23 12:40:51;;;;;;;1.30;1.20;;;23.00;22.30;;;;;;4977723;28;20436;-70
2022/09/23 12:43:31;;;;;;;1.30;1.10;;;23.40;22.70;;;;;;4967311;28;21019;-70
2022/09/23 12:46:24;;;;;;;1.30;1.10;;;24.30;22.30;;;;;;4968250;28;20953;-71
2022/09/23 12:48:59;;;;;;;1.30;1.20;;;25.10;21.70;;;;;;4972178;28;20433;-71
2022/09/23 12:51:33;;;;;;;1.30;1.10;;;25.40;20.50;;;;;;4975257;28;21015;-71
2022/09/23 12:54:20;;;;;;;1.30;1.10;;;24.40;21.50;;;;;;4975638;28;20509;-71
2022/09/23 12:56:54;;;;;;;1.30;1.10;;;22.70;22.80;;;;;;4969375;28;20954;-70
2022/09/23 12:59:29;;;;;;;1.30;1.20;;;23.50;24.70;;;;;;4974519;28;20429;-70
2022/09/23 13:01:55;;;;;;;1.30;1.10;;;23.30;21.40;;;;;;4967718;28;20791;-71
2022/09/23 13:07:15;;;;;;;1.30;1.10;;;23.30;23.10;;;;;;4967325;28;20831;-72
2022/09/23 13:09:45;;;;;;;1.30;1.03;;;24.20;21.90;;;;;;4967437;28;20457;-71
2022/09/23 13:12:20;;;;;;;1.30;1.03;;;24.30;21.00;;;;;;4974951;28;20425;-71
2022/09/23 13:14:48;;;;;;;1.30;1.20;;;25.00;19.90;;;;;;4975105;28;20425;-71
2022/09/23 13:17:43;;;;;;;1.30;1.20;;;25.70;19.60;;;;;;4969054;28;20954;-71
2022/09/23 13:20:18;;;;;;;1.30;1.10;;;26.30;18.70;;;;;;4967885;28;20509;-71
2022/09/23 13:22:53;;;;;;;1.30;1.20;;;26.70;19.50;;;;;;4973006;28;20421;-71
2022/09/23 13:25:31;;;;;;;1.30;1.10;;;26.20;20.60;;;;;;4974719;28;20795;-71
2022/09/23 13:28:00;;;;;;;1.30;1.10;;;25.90;19.80;;;;;;4974902;28;20441;-71